createdAt,value
2023-05-10T00:01:19.611Z,1.85
2023-05-10T00:03:46.193Z,1.60
2023-05-10T00:06:12.742Z,1.63
2023-05-10T00:08:39.205Z,1.40
2023-05-10T00:11:05.672Z,1.70
2023-05-10T00:13:32.181Z,1.60
2023-05-10T00:16:00.073Z,1.40
2023-05-10T00:18:26.590Z,1.45
2023-05-10T00:20:53.237Z,1.40
2023-05-10T00:23:19.736Z,1.30
2023-05-10T00:25:46.294Z,1.10
2023-05-10T00:28:12.722Z,1.05
2023-05-10T00:30:39.146Z,1.17
2023-05-10T00:33:06.958Z,1.00
2023-05-10T00:35:33.572Z,0.88
2023-05-10T00:38:00.011Z,1.25
2023-05-10T00:40:26.808Z,0.80
2023-05-10T00:42:53.283Z,1.00
2023-05-10T00:45:19.869Z,0.85
2023-05-10T00:47:46.473Z,1.37
2023-05-10T00:50:14.774Z,1.00
2023-05-10T00:52:42.278Z,0.80
2023-05-10T00:55:10.954Z,0.80
2023-05-10T00:57:37.392Z,1.17
2023-05-10T01:00:04.976Z,1.00
2023-05-10T01:04:57.906Z,0.57
2023-05-10T01:07:25.785Z,0.82
2023-05-10T01:09:52.286Z,0.40
2023-05-10T01:12:18.747Z,0.50
2023-05-10T01:14:45.584Z,0.50
2023-05-10T01:17:13.341Z,0.47
2023-05-10T01:19:40.039Z,0.80
2023-05-10T01:22:23.212Z,0.47
2023-05-10T01:25:12.212Z,0.50
2023-05-10T01:28:00.850Z,0.40
2023-05-10T01:31:04.526Z,0.50
2023-05-10T01:36:06.955Z,0.60
2023-05-10T01:38:42.634Z,0.40
2023-05-10T01:41:18.080Z,0.60
2023-05-10T01:43:53.959Z,0.47
2023-05-10T01:46:28.187Z,0.47
2023-05-10T01:48:58.701Z,0.60
2023-05-10T01:51:32.091Z,0.50
2023-05-10T01:54:02.511Z,0.40
2023-05-10T01:56:32.214Z,1.17
2023-05-10T01:59:00.842Z,0.40
2023-05-10T02:01:28.259Z,0.50
2023-05-10T02:03:56.451Z,0.63
2023-05-10T02:06:24.586Z,0.60
2023-05-10T02:08:53.772Z,0.70
2023-05-10T02:11:21.283Z,0.70
2023-05-10T02:16:17.086Z,0.50
2023-05-10T02:18:44.033Z,0.52
2023-05-10T02:21:11.750Z,0.60
2023-05-10T02:23:38.672Z,0.60
2023-05-10T02:26:07.588Z,0.77
2023-05-10T02:28:36.228Z,1.60
2023-05-10T02:31:03.533Z,0.73
2023-05-10T02:33:32.133Z,0.98
2023-05-10T02:35:59.192Z,1.05
2023-05-10T02:38:26.797Z,0.90
2023-05-10T02:43:23.959Z,0.80
2023-05-10T02:45:50.623Z,0.70
2023-05-10T02:48:17.549Z,1.10
2023-05-10T02:50:45.956Z,0.80
2023-05-10T02:53:17.538Z,0.80
2023-05-10T02:55:49.655Z,0.75
2023-05-10T02:58:16.100Z,0.60
2023-05-10T03:00:44.041Z,0.90
2023-05-10T03:03:10.507Z,0.70
2023-05-10T03:05:37.004Z,0.90
2023-05-10T03:08:03.772Z,0.90
2023-05-10T03:10:33.406Z,1.17
2023-05-10T03:13:15.637Z,1.40
2023-05-10T03:15:52.989Z,0.90
2023-05-10T03:18:23.688Z,1.40
2023-05-10T03:20:51.962Z,0.90
2023-05-10T03:23:25.813Z,1.05
2023-05-10T03:25:53.388Z,0.93
2023-05-10T03:30:48.503Z,1.23
2023-05-10T03:33:15.039Z,1.20
2023-05-10T03:35:41.631Z,1.17
2023-05-10T03:38:08.046Z,1.45
2023-05-10T03:40:34.488Z,1.08
2023-05-10T03:43:01.021Z,1.27
2023-05-10T03:45:27.816Z,1.70
2023-05-10T03:47:55.723Z,1.80
2023-05-10T03:50:22.293Z,1.55
2023-05-10T03:52:48.819Z,1.35
2023-05-10T03:55:15.327Z,1.50
2023-05-10T03:57:41.760Z,1.52
2023-05-10T04:00:09.479Z,1.92
2023-05-10T04:02:36.073Z,2.15
2023-05-10T04:05:04.285Z,1.77
2023-05-10T04:07:30.737Z,1.83
2023-05-10T04:09:57.159Z,1.23
2023-05-10T04:12:23.695Z,1.45
2023-05-10T04:14:50.212Z,1.63
2023-05-10T04:17:16.716Z,1.55
2023-05-10T04:19:43.165Z,1.77
2023-05-10T04:22:10.931Z,1.52
2023-05-10T04:24:37.385Z,1.55
2023-05-10T04:27:03.878Z,1.77
2023-05-10T04:29:30.324Z,1.50
2023-05-10T04:31:56.809Z,1.50
2023-05-10T04:34:23.226Z,1.48
2023-05-10T04:36:49.692Z,1.75
2023-05-10T04:41:44.786Z,1.77
2023-05-10T04:44:11.214Z,1.67
2023-05-10T04:46:37.736Z,1.60
2023-05-10T04:49:04.202Z,1.80
2023-05-10T04:51:30.627Z,2.05
2023-05-10T04:54:05.273Z,1.88
2023-05-10T04:56:34.719Z,1.50
2023-05-10T04:59:01.531Z,1.42
2023-05-10T05:01:28.067Z,1.57
2023-05-10T05:03:54.845Z,1.33
2023-05-10T05:06:21.419Z,1.58
2023-05-10T05:08:47.871Z,1.70
2023-05-10T05:11:14.296Z,1.58
2023-05-10T05:13:42.079Z,1.60
2023-05-10T05:16:08.546Z,1.40
2023-05-10T05:18:35.015Z,1.27
2023-05-10T05:21:01.508Z,1.60
2023-05-10T05:23:28.102Z,1.50
2023-05-10T05:25:54.723Z,1.40
2023-05-10T05:28:21.662Z,1.60
2023-05-10T05:30:49.460Z,1.65
2023-05-10T05:33:15.904Z,1.77
2023-05-10T05:35:42.444Z,1.60
2023-05-10T05:38:08.896Z,1.83
2023-05-10T05:40:35.349Z,1.60
2023-05-10T05:43:01.767Z,1.50
2023-05-10T05:45:28.206Z,1.50
2023-05-10T05:47:56.048Z,1.33
2023-05-10T05:50:22.561Z,1.50
2023-05-10T05:52:48.992Z,1.50
2023-05-10T05:55:15.718Z,1.20
2023-05-10T05:57:42.419Z,1.58
2023-05-10T06:00:09.668Z,1.52
2023-05-10T06:02:36.145Z,1.60
2023-05-10T06:05:04.443Z,1.90
2023-05-10T06:07:30.833Z,1.85
2023-05-10T06:09:57.280Z,1.48
2023-05-10T06:12:23.716Z,1.58
2023-05-10T06:14:50.163Z,1.38
2023-05-10T06:17:16.606Z,1.30
2023-05-10T06:19:43.030Z,1.27
2023-05-10T06:22:11.120Z,1.80
2023-05-10T06:24:37.542Z,2.00
2023-05-10T06:27:04.143Z,1.40
2023-05-10T06:29:30.604Z,1.35
2023-05-10T06:31:57.092Z,1.40
2023-05-10T06:34:23.731Z,1.35
2023-05-10T06:36:50.186Z,1.70
2023-05-10T06:39:18.164Z,1.50
2023-05-10T06:41:44.758Z,1.55
2023-05-10T06:44:11.178Z,1.90
2023-05-10T06:46:37.748Z,1.60
2023-05-10T06:49:04.223Z,1.27
2023-05-10T06:51:30.708Z,1.65
2023-05-10T06:53:57.137Z,1.40
2023-05-10T06:56:24.930Z,1.17
2023-05-10T06:58:51.400Z,1.55
2023-05-10T07:01:18.013Z,1.40
2023-05-10T07:03:44.512Z,1.70
2023-05-10T07:06:21.787Z,1.58
2023-05-10T07:08:57.357Z,1.35
2023-05-10T07:11:25.137Z,1.90
2023-05-10T07:13:51.586Z,1.33
2023-05-10T07:16:18.044Z,1.45
2023-05-10T07:18:44.511Z,1.30
2023-05-10T07:21:10.973Z,1.50
2023-05-10T07:23:37.442Z,1.05
2023-05-10T07:26:04.081Z,1.30
2023-05-10T07:28:31.890Z,1.43
2023-05-10T07:30:58.401Z,1.30
2023-05-10T07:36:22.022Z,1.30
2023-05-10T07:38:48.729Z,1.23
2023-05-10T07:41:15.216Z,1.40
2023-05-10T07:43:43.015Z,1.17
2023-05-10T07:46:09.451Z,1.05
2023-05-10T07:48:35.973Z,0.95
2023-05-10T07:51:02.414Z,0.93
2023-05-10T07:53:28.903Z,0.50
2023-05-10T07:55:58.416Z,0.82
2023-05-10T07:58:24.920Z,0.80
2023-05-10T08:00:53.033Z,0.80
2023-05-10T08:03:19.668Z,0.68
2023-05-10T08:05:46.224Z,0.90
2023-05-10T08:08:12.654Z,0.60
2023-05-10T08:10:39.293Z,0.60
2023-05-10T08:13:05.725Z,0.70
2023-05-10T08:15:32.176Z,0.77
2023-05-10T08:17:59.905Z,0.80
2023-05-10T08:20:26.608Z,0.70
2023-05-10T08:22:53.064Z,0.47
2023-05-10T08:25:19.849Z,0.50
2023-05-10T08:27:46.511Z,0.68
2023-05-10T08:30:13.485Z,0.75
2023-05-10T08:32:40.005Z,0.85
2023-05-10T08:35:08.290Z,0.75
2023-05-10T08:37:34.770Z,0.50
2023-05-10T08:40:01.317Z,1.20
2023-05-10T08:42:30.998Z,0.70
2023-05-10T08:44:58.486Z,0.50
2023-05-10T08:49:53.306Z,0.88
2023-05-10T08:52:23.209Z,0.50
2023-05-10T08:54:49.909Z,0.80
2023-05-10T08:57:16.457Z,0.50
2023-05-10T08:59:42.933Z,0.68
2023-05-10T09:02:11.268Z,0.63
2023-05-10T09:04:37.799Z,0.60
2023-05-10T09:07:04.439Z,0.73
2023-05-10T09:09:32.493Z,0.45
2023-05-10T09:11:58.943Z,0.40
2023-05-10T09:14:25.963Z,0.50
2023-05-10T09:16:53.072Z,0.50
2023-05-10T09:19:19.548Z,0.57
2023-05-10T09:21:45.929Z,0.45
2023-05-10T09:24:12.887Z,0.45
2023-05-10T09:26:47.260Z,0.60
2023-05-10T09:29:17.235Z,0.60
2023-05-10T09:31:45.975Z,0.40
2023-05-10T09:34:12.529Z,0.60
2023-05-10T09:36:51.672Z,1.63
2023-05-10T09:39:18.104Z,0.43
2023-05-10T09:41:45.884Z,0.57
2023-05-10T09:44:12.488Z,0.40
2023-05-10T09:46:39.138Z,0.53
2023-05-10T09:49:06.498Z,0.47
2023-05-10T09:51:34.022Z,0.60
2023-05-10T09:54:12.130Z,0.40
2023-05-10T09:56:38.816Z,0.40
2023-05-10T09:59:07.129Z,0.40
2023-05-10T10:01:34.285Z,0.40
2023-05-10T10:04:04.599Z,0.50
2023-05-10T10:06:36.487Z,0.40
2023-05-10T10:09:02.989Z,0.40
2023-05-10T10:11:29.712Z,0.68
2023-05-10T10:13:56.565Z,0.32
2023-05-10T10:16:25.486Z,0.73
2023-05-10T10:18:52.081Z,0.45
2023-05-10T10:21:19.090Z,0.27
2023-05-10T10:23:46.816Z,0.40
2023-05-10T10:26:13.688Z,0.35
2023-05-10T10:28:49.493Z,0.40
2023-05-10T10:31:24.687Z,0.52
2023-05-10T10:34:00.340Z,0.30
2023-05-10T10:36:27.166Z,0.30
2023-05-10T10:39:01.459Z,0.30
2023-05-10T10:41:30.438Z,0.45
2023-05-10T10:44:25.600Z,0.30
2023-05-10T10:47:23.314Z,1.10
2023-05-10T10:49:52.455Z,0.60
2023-05-10T10:52:24.182Z,0.77
2023-05-10T10:54:51.816Z,0.93
2023-05-10T10:57:19.890Z,0.70
2023-05-10T10:59:46.370Z,0.60
2023-05-10T11:02:33.508Z,0.60
2023-05-10T11:05:21.533Z,0.60
2023-05-10T11:07:53.235Z,0.73
2023-05-10T11:10:20.620Z,0.52
2023-05-10T11:12:52.763Z,0.57
2023-05-10T11:15:20.003Z,0.50
2023-05-10T11:17:46.643Z,0.43
2023-05-10T11:20:16.056Z,0.77
2023-05-10T11:22:52.749Z,0.70
2023-05-10T11:25:19.285Z,0.80
2023-05-10T11:27:48.326Z,0.60
2023-05-10T11:30:15.829Z,0.60
2023-05-10T11:32:42.887Z,1.10
2023-05-10T11:35:10.232Z,0.60
2023-05-10T11:37:39.546Z,1.48
2023-05-10T11:40:07.043Z,0.40
2023-05-10T11:45:01.567Z,0.38
2023-05-10T11:47:28.036Z,0.60
2023-05-10T11:49:54.578Z,2.03
2023-05-10T11:52:21.029Z,0.80
2023-05-10T11:54:53.455Z,0.85
2023-05-10T11:57:20.653Z,0.70
2023-05-10T11:59:47.109Z,0.52
2023-05-10T12:02:14.308Z,0.63
2023-05-10T12:04:41.048Z,0.95
2023-05-10T12:07:07.519Z,0.57
2023-05-10T12:09:43.372Z,2.22
2023-05-10T12:12:17.200Z,0.88
2023-05-10T12:14:43.649Z,0.73
2023-05-10T12:17:12.725Z,0.85
2023-05-10T12:19:39.669Z,0.90
2023-05-10T12:22:06.242Z,1.17
2023-05-10T12:24:35.050Z,0.90
2023-05-10T12:27:05.682Z,1.17
2023-05-10T12:29:33.445Z,1.17
2023-05-10T12:32:00.707Z,0.50
2023-05-10T12:34:28.155Z,0.90
2023-05-10T12:36:55.524Z,1.00
2023-05-10T12:39:22.061Z,0.93
2023-05-10T12:41:48.560Z,0.80
2023-05-10T12:44:15.630Z,0.80
2023-05-10T12:46:43.425Z,0.80
2023-05-10T12:49:10.110Z,1.02
2023-05-10T12:51:36.856Z,0.93
2023-05-10T12:54:03.946Z,1.27
2023-05-10T12:56:30.394Z,0.70
2023-05-10T12:58:56.936Z,1.00
2023-05-10T13:01:23.510Z,1.00
2023-05-10T13:03:51.413Z,1.00
2023-05-10T13:06:17.826Z,1.02
2023-05-10T13:08:44.261Z,1.00
2023-05-10T13:11:10.805Z,1.08
2023-05-10T13:13:37.245Z,0.80
2023-05-10T13:16:03.975Z,1.10
2023-05-10T13:18:30.467Z,0.80
2023-05-10T13:20:58.340Z,0.93
2023-05-10T13:23:24.780Z,0.88
2023-05-10T13:25:51.216Z,0.95
2023-05-10T13:28:17.661Z,0.93
2023-05-10T13:30:44.149Z,0.77
2023-05-10T13:33:10.608Z,1.00
2023-05-10T13:35:37.056Z,0.60
2023-05-10T13:38:04.865Z,0.90
2023-05-10T13:40:31.507Z,0.95
2023-05-10T13:42:57.930Z,1.00
2023-05-10T13:45:24.372Z,1.08
2023-05-10T13:47:52.981Z,0.85
2023-05-10T13:50:19.712Z,0.70
2023-05-10T13:52:46.143Z,0.68
2023-05-10T13:55:14.322Z,0.98
2023-05-10T13:57:40.750Z,0.70
2023-05-10T14:00:08.480Z,0.85
2023-05-10T14:02:35.135Z,0.77
2023-05-10T14:05:01.655Z,0.98
2023-05-10T14:07:28.086Z,0.98
2023-05-10T14:09:54.533Z,1.90
2023-05-10T14:12:22.282Z,0.85
2023-05-10T14:14:48.750Z,0.80
2023-05-10T14:17:15.171Z,0.73
2023-05-10T14:19:41.619Z,0.95
2023-05-10T14:22:08.087Z,0.60
2023-05-10T14:24:34.562Z,0.85
2023-05-10T14:27:01.022Z,0.80
2023-05-10T14:29:28.841Z,0.77
2023-05-10T14:31:55.344Z,1.75
2023-05-10T14:34:21.819Z,0.90
2023-05-10T14:36:48.267Z,0.60
2023-05-10T14:39:14.709Z,1.00
2023-05-10T14:41:41.170Z,0.82
2023-05-10T14:44:10.392Z,0.93
2023-05-10T14:46:38.227Z,0.88
2023-05-10T14:49:04.713Z,0.93
2023-05-10T14:51:31.206Z,0.75
2023-05-10T14:53:57.648Z,0.50
2023-05-10T14:56:24.117Z,0.60
2023-05-10T14:58:50.877Z,0.57
2023-05-10T15:01:17.383Z,0.70
2023-05-10T15:03:45.488Z,0.77
2023-05-10T15:06:14.533Z,0.55
2023-05-10T15:08:40.943Z,1.08
2023-05-10T15:11:07.389Z,0.50
2023-05-10T15:13:33.828Z,0.70
2023-05-10T15:16:00.285Z,0.60
2023-05-10T15:18:26.898Z,0.93
2023-05-10T15:20:54.731Z,1.47
2023-05-10T15:23:21.169Z,0.60
2023-05-10T15:25:47.581Z,0.70
2023-05-10T15:28:14.022Z,0.57
2023-05-10T15:30:40.424Z,0.40
2023-05-10T15:33:06.945Z,0.47
2023-05-10T15:35:33.455Z,0.93
2023-05-10T15:38:01.350Z,0.70
2023-05-10T15:40:27.793Z,0.50
2023-05-10T15:42:54.277Z,0.77
2023-05-10T15:45:20.731Z,1.00
2023-05-10T15:47:47.211Z,0.65
2023-05-10T15:50:13.720Z,0.70
2023-05-10T15:52:40.167Z,1.10
2023-05-10T15:55:09.096Z,0.52
2023-05-10T15:57:36.833Z,0.60
2023-05-10T16:00:04.038Z,1.08
2023-05-10T16:02:30.548Z,0.80
2023-05-10T16:04:57.103Z,0.40
2023-05-10T16:07:23.543Z,0.55
2023-05-10T16:09:50.005Z,0.52
2023-05-10T16:12:17.962Z,0.40
2023-05-10T16:14:44.514Z,0.60
2023-05-10T16:17:11.046Z,0.60
2023-05-10T16:19:37.546Z,0.50
2023-05-10T16:22:04.600Z,0.40
2023-05-10T16:24:31.038Z,0.60
2023-05-10T16:26:57.454Z,0.40
2023-05-10T16:29:25.240Z,0.50
2023-05-10T16:31:51.668Z,0.40
2023-05-10T16:34:18.155Z,0.52
2023-05-10T16:36:44.607Z,0.45
2023-05-10T16:39:11.044Z,0.65
2023-05-10T16:41:37.452Z,0.50
2023-05-10T16:44:03.897Z,0.80
2023-05-10T16:46:31.693Z,0.90
2023-05-10T16:48:58.221Z,0.77
2023-05-10T16:51:24.740Z,1.13
2023-05-10T16:53:51.188Z,0.80
2023-05-10T16:56:17.664Z,1.00
2023-05-10T16:58:44.131Z,0.98
2023-05-10T17:01:10.558Z,0.90
2023-05-10T17:03:38.459Z,1.10
2023-05-10T17:06:05.641Z,0.98
2023-05-10T17:08:32.091Z,1.20
2023-05-10T17:11:01.342Z,1.55
2023-05-10T17:13:27.815Z,0.70
2023-05-10T17:15:54.340Z,0.70
2023-05-10T17:18:20.904Z,0.73
2023-05-10T17:20:48.815Z,0.80
2023-05-10T17:23:15.256Z,1.08
2023-05-10T17:25:41.705Z,0.88
2023-05-10T17:28:08.200Z,0.80
2023-05-10T17:30:36.948Z,0.70
2023-05-10T17:33:03.584Z,0.68
2023-05-10T17:35:30.138Z,0.90
2023-05-10T17:37:57.915Z,1.30
2023-05-10T17:40:24.369Z,0.77
2023-05-10T17:42:50.814Z,1.20
2023-05-10T17:45:17.726Z,0.80
2023-05-10T17:47:44.371Z,0.90
2023-05-10T17:50:11.006Z,0.85
2023-05-10T17:52:37.441Z,0.85
2023-05-10T17:55:06.399Z,1.20
2023-05-10T17:57:32.837Z,0.82
2023-05-10T17:59:59.322Z,0.95
2023-05-10T18:02:26.177Z,1.20
2023-05-10T18:04:52.836Z,0.80
2023-05-10T18:07:19.405Z,1.10
2023-05-10T18:09:45.809Z,2.17
2023-05-10T18:12:13.616Z,1.10
2023-05-10T18:14:41.481Z,1.10
2023-05-10T18:17:09.134Z,1.00
2023-05-10T18:19:35.763Z,0.77
2023-05-10T18:22:02.212Z,0.93
2023-05-10T18:24:38.417Z,0.82
2023-05-10T18:27:06.472Z,1.00
2023-05-10T18:29:34.429Z,0.93
2023-05-10T18:32:00.893Z,1.13
2023-05-10T18:34:27.339Z,1.20
2023-05-10T18:36:53.841Z,0.98
2023-05-10T18:39:20.424Z,3.25
2023-05-10T18:41:47.039Z,0.90
2023-05-10T18:44:13.487Z,0.85
2023-05-10T18:46:41.356Z,0.90
2023-05-10T18:49:07.940Z,1.13
2023-05-10T18:51:34.441Z,1.20
2023-05-10T18:54:00.893Z,1.20
2023-05-10T18:56:27.340Z,1.08
2023-05-10T18:58:53.787Z,1.27
2023-05-10T19:01:20.257Z,1.40
2023-05-10T19:03:48.210Z,0.90
2023-05-10T19:06:14.643Z,0.93
2023-05-10T19:08:41.128Z,0.95
2023-05-10T19:11:07.604Z,0.85
2023-05-10T19:13:34.203Z,1.05
2023-05-10T19:16:03.063Z,1.00
2023-05-10T19:18:32.796Z,0.90
2023-05-10T19:21:02.614Z,0.70
2023-05-10T19:23:29.144Z,0.93
2023-05-10T19:25:55.678Z,0.82
2023-05-10T19:28:22.305Z,1.05
2023-05-10T19:30:48.768Z,0.93
2023-05-10T19:33:15.242Z,0.77
2023-05-10T19:35:41.863Z,1.00
2023-05-10T19:38:09.898Z,0.98
2023-05-10T19:40:36.359Z,0.82
2023-05-10T19:43:03.149Z,0.80
2023-05-10T19:45:29.707Z,0.90
2023-05-10T19:47:56.444Z,0.90
2023-05-10T19:50:22.953Z,0.90
2023-05-10T19:52:50.540Z,0.68
2023-05-10T19:55:27.479Z,0.80
2023-05-10T19:57:54.103Z,0.70
2023-05-10T20:00:20.745Z,0.60
2023-05-10T20:02:47.248Z,0.80
2023-05-10T20:05:13.970Z,0.90
2023-05-10T20:07:40.460Z,0.87
2023-05-10T20:10:08.021Z,0.65
2023-05-10T20:12:36.263Z,1.75
2023-05-10T20:15:03.185Z,0.80
2023-05-10T20:17:30.102Z,1.05
2023-05-10T20:19:56.591Z,0.98
2023-05-10T20:22:23.166Z,0.75
2023-05-10T20:24:49.620Z,0.88
2023-05-10T20:27:16.059Z,0.85
2023-05-10T20:29:43.865Z,0.95
2023-05-10T20:32:10.289Z,0.80
2023-05-10T20:34:36.725Z,0.82
2023-05-10T20:37:08.057Z,0.70
2023-05-10T20:39:34.519Z,0.73
2023-05-10T20:42:01.278Z,0.68
2023-05-10T20:44:27.746Z,0.90
2023-05-10T20:46:55.644Z,0.77
2023-05-10T20:49:22.073Z,1.20
2023-05-10T20:51:48.521Z,1.20
2023-05-10T20:54:14.961Z,0.70
2023-05-10T20:56:41.411Z,0.57
2023-05-10T20:59:07.871Z,0.93
2023-05-10T21:01:34.495Z,0.88
2023-05-10T21:04:02.745Z,1.40
2023-05-10T21:06:29.445Z,1.23
2023-05-10T21:08:55.845Z,1.10
2023-05-10T21:11:22.349Z,1.10
2023-05-10T21:13:48.816Z,0.95
2023-05-10T21:16:15.310Z,1.15
2023-05-10T21:18:41.819Z,1.02
2023-05-10T21:21:09.675Z,1.00
2023-05-10T21:23:36.102Z,1.02
2023-05-10T21:26:03.248Z,1.42
2023-05-10T21:28:29.680Z,1.13
2023-05-10T21:30:56.166Z,1.35
2023-05-10T21:33:22.709Z,1.20
2023-05-10T21:35:49.263Z,1.38
2023-05-10T21:38:19.148Z,1.07
2023-05-10T21:40:45.577Z,1.08
2023-05-10T21:43:12.061Z,1.00
2023-05-10T21:45:38.620Z,1.02
2023-05-10T21:48:05.234Z,1.25
2023-05-10T21:50:31.869Z,1.30
2023-05-10T21:52:58.313Z,1.60
2023-05-10T21:55:26.219Z,0.90
2023-05-10T21:57:52.669Z,1.25
2023-05-10T22:00:19.596Z,0.80
2023-05-10T22:02:46.515Z,1.10
2023-05-10T22:05:13.364Z,1.17
2023-05-10T22:07:39.819Z,0.90
2023-05-10T22:10:07.452Z,1.20
2023-05-10T22:12:35.303Z,0.93
2023-05-10T22:15:10.478Z,0.90
2023-05-10T22:17:37.911Z,0.82
2023-05-10T22:20:05.662Z,1.00
2023-05-10T22:22:32.142Z,1.02
2023-05-10T22:24:58.594Z,1.00
2023-05-10T22:27:25.058Z,0.93
2023-05-10T22:29:52.815Z,1.02
2023-05-10T22:32:19.241Z,0.98
2023-05-10T22:34:45.757Z,1.23
2023-05-10T22:37:12.235Z,1.33
2023-05-10T22:39:38.698Z,0.98
2023-05-10T22:42:05.275Z,1.13
2023-05-10T22:44:31.701Z,1.35
2023-05-10T22:46:59.547Z,0.70
2023-05-10T22:49:26.046Z,1.08
2023-05-10T22:51:52.488Z,1.20
2023-05-10T22:54:18.920Z,1.00
2023-05-10T22:56:45.449Z,0.90
2023-05-10T22:59:11.930Z,0.95
2023-05-10T23:01:38.419Z,0.98
2023-05-10T23:04:06.221Z,1.10
2023-05-10T23:06:32.643Z,1.00
2023-05-10T23:08:59.124Z,0.75
2023-05-10T23:11:25.539Z,1.00
2023-05-10T23:13:51.989Z,1.05
2023-05-10T23:16:18.603Z,0.88
2023-05-10T23:18:45.203Z,0.80
2023-05-10T23:21:13.051Z,0.73
2023-05-10T23:23:39.518Z,0.73
2023-05-10T23:26:06.014Z,1.00
2023-05-10T23:28:32.518Z,0.80
2023-05-10T23:30:59.287Z,0.75
2023-05-10T23:33:26.127Z,0.95
2023-05-10T23:35:55.435Z,0.90
2023-05-10T23:38:23.240Z,0.70
2023-05-10T23:40:50.072Z,0.90
2023-05-10T23:43:17.156Z,1.00
2023-05-10T23:45:43.787Z,0.57
2023-05-10T23:48:10.240Z,0.70
2023-05-10T23:50:36.705Z,0.80
2023-05-10T23:53:03.139Z,0.93
2023-05-10T23:55:30.922Z,0.70
2023-05-10T23:57:57.398Z,0.80
